createdAt,value
2022-08-12T00:00:00.201Z,10.95
2022-08-12T00:02:46.107Z,10.77
2022-08-12T00:05:32.051Z,10.55
2022-08-12T00:08:17.582Z,9.95
2022-08-12T00:11:15.347Z,10.10
2022-08-12T00:14:01.243Z,9.25
2022-08-12T00:16:47.542Z,9.80
2022-08-12T00:19:33.845Z,10.48
2022-08-12T00:22:19.790Z,9.15
2022-08-12T00:25:05.828Z,9.40
2022-08-12T00:27:51.870Z,9.50
2022-08-12T00:30:37.541Z,8.50
2022-08-12T00:33:23.235Z,10.52
2022-08-12T00:36:17.799Z,10.48
2022-08-12T00:39:18.104Z,10.25
2022-08-12T00:42:04.751Z,9.80
2022-08-12T00:44:31.741Z,9.57
2022-08-12T00:47:01.202Z,9.20
2022-08-12T00:49:30.617Z,9.77
2022-08-12T00:52:10.067Z,10.23
2022-08-12T00:54:58.347Z,9.98
2022-08-12T00:57:37.452Z,9.77
2022-08-12T01:00:13.329Z,10.35
2022-08-12T01:02:42.492Z,11.05
2022-08-12T01:05:30.917Z,10.07
2022-08-12T01:08:16.530Z,8.65
2022-08-12T01:11:04.070Z,9.00
2022-08-12T01:13:35.111Z,9.15
2022-08-12T01:16:05.711Z,10.20
2022-08-12T01:18:35.511Z,11.00
2022-08-12T01:21:27.203Z,9.90
2022-08-12T01:24:32.196Z,10.90
2022-08-12T01:27:01.449Z,10.68
2022-08-12T01:29:33.020Z,10.60
2022-08-12T01:34:36.356Z,9.85
2022-08-12T01:37:06.599Z,9.10
2022-08-12T01:40:33.881Z,9.93
2022-08-12T01:42:39.865Z,9.07
2022-08-12T01:45:07.574Z,9.25
2022-08-12T01:47:49.227Z,9.07
2022-08-12T01:50:31.229Z,8.73
2022-08-12T01:55:32.542Z,8.30
2022-08-12T02:01:21.036Z,9.60
2022-08-12T02:04:23.524Z,8.60
2022-08-12T02:07:27.989Z,9.18
2022-08-12T02:10:49.414Z,8.65
2022-08-12T02:13:42.115Z,7.95
2022-08-12T02:16:27.399Z,8.18
2022-08-12T02:19:22.789Z,8.63
2022-08-12T02:22:22.668Z,8.00
2022-08-12T02:24:51.020Z,8.73
2022-08-12T02:27:19.566Z,9.13
2022-08-12T02:29:47.651Z,8.95
2022-08-12T02:32:15.165Z,8.73
2022-08-12T02:34:44.573Z,8.52
2022-08-12T02:37:15.457Z,8.70
2022-08-12T02:39:48.906Z,8.77
2022-08-12T02:42:19.755Z,8.50
2022-08-12T02:44:51.410Z,7.90
2022-08-12T02:47:59.131Z,8.43
2022-08-12T02:50:10.993Z,8.45
2022-08-12T02:52:38.936Z,8.80
2022-08-12T02:55:28.936Z,8.95
2022-08-12T02:58:12.353Z,8.98
2022-08-12T03:00:43.354Z,9.23
2022-08-12T03:03:13.122Z,9.23
2022-08-12T03:06:00.038Z,8.15
2022-08-12T03:08:32.926Z,8.35
2022-08-12T03:11:06.238Z,8.27
2022-08-12T03:13:42.848Z,9.52
2022-08-12T03:16:09.977Z,10.82
2022-08-12T03:18:37.256Z,10.40
2022-08-12T03:21:04.373Z,8.82
2022-08-12T03:23:31.709Z,8.90
2022-08-12T03:26:02.849Z,9.45
2022-08-12T03:28:51.699Z,8.60
2022-08-12T03:31:24.923Z,8.93
2022-08-12T03:34:00.617Z,8.52
2022-08-12T03:36:31.477Z,7.90
2022-08-12T03:39:19.004Z,9.02
2022-08-12T03:41:58.489Z,7.80
2022-08-12T03:44:57.429Z,6.88
2022-08-12T03:48:08.760Z,6.72
2022-08-12T03:53:46.363Z,7.00
2022-08-12T03:56:32.632Z,6.22
2022-08-12T03:59:19.478Z,7.00
2022-08-12T04:01:52.617Z,6.93
2022-08-12T04:04:23.501Z,6.60
2022-08-12T04:06:50.707Z,5.78
2022-08-12T04:09:21.168Z,6.63
2022-08-12T04:12:07.646Z,7.22
2022-08-12T04:14:37.799Z,5.97
2022-08-12T04:17:05.205Z,5.43
2022-08-12T04:19:32.257Z,5.00
2022-08-12T04:22:02.772Z,5.38
2022-08-12T04:24:35.586Z,6.07
2022-08-12T04:30:32.913Z,5.13
2022-08-12T04:32:27.739Z,5.68
2022-08-12T04:34:55.366Z,5.60
2022-08-12T04:37:23.264Z,5.32
2022-08-12T04:39:51.054Z,4.95
2022-08-12T04:42:20.243Z,5.60
2022-08-12T04:44:48.210Z,6.03
2022-08-12T04:47:16.646Z,6.20
2022-08-12T04:49:45.566Z,6.38
2022-08-12T04:52:13.546Z,6.70
2022-08-12T04:54:40.879Z,6.47
2022-08-12T04:57:09.994Z,6.20
2022-08-12T04:59:46.918Z,5.93
2022-08-12T05:02:21.714Z,6.38
2022-08-12T05:04:56.288Z,5.72
2022-08-12T05:07:28.546Z,6.03
2022-08-12T05:10:00.733Z,6.45
2022-08-12T05:12:43.207Z,6.78
2022-08-12T05:15:27.471Z,6.70
2022-08-12T05:18:00.237Z,6.93
2022-08-12T05:20:29.879Z,6.43
2022-08-12T05:23:17.582Z,6.90
2022-08-12T05:25:45.921Z,6.93
2022-08-12T05:28:14.163Z,7.03
2022-08-12T05:30:42.785Z,7.20
2022-08-12T05:33:11.578Z,7.30
2022-08-12T05:35:41.767Z,7.75
2022-08-12T05:38:32.549Z,7.60
2022-08-12T05:41:00.697Z,6.90
2022-08-12T05:43:28.880Z,6.80
2022-08-12T05:45:56.247Z,6.30
2022-08-12T05:48:23.539Z,6.80
2022-08-12T05:50:50.699Z,6.65
2022-08-12T05:53:17.637Z,6.10
2022-08-12T05:55:44.727Z,5.63
2022-08-12T05:58:11.720Z,4.97
2022-08-12T06:00:38.873Z,4.80
2022-08-12T06:03:06.893Z,5.38
2022-08-12T06:05:43.045Z,4.30
2022-08-12T06:08:21.821Z,4.43
2022-08-12T06:10:52.059Z,4.28
2022-08-12T06:13:28.554Z,4.13
2022-08-12T06:16:07.739Z,4.18
2022-08-12T06:18:35.158Z,3.45
2022-08-12T06:21:02.474Z,4.63
2022-08-12T06:23:30.580Z,3.78
2022-08-12T06:25:58.627Z,3.60
2022-08-12T06:28:26.153Z,4.07
2022-08-12T06:31:22.147Z,3.65
2022-08-12T06:33:54.973Z,3.55
2022-08-12T06:36:29.475Z,3.28
2022-08-12T06:38:57.368Z,2.92
2022-08-12T06:42:30.604Z,2.90
2022-08-12T06:44:29.919Z,2.50
2022-08-12T06:46:58.541Z,2.78
2022-08-12T06:49:26.071Z,2.88
2022-08-12T06:51:56.913Z,2.67
2022-08-12T06:54:27.055Z,2.20
2022-08-12T06:57:04.857Z,2.40
2022-08-12T06:59:51.133Z,2.00
2022-08-12T07:02:21.139Z,1.98
2022-08-12T07:04:50.877Z,1.90
2022-08-12T07:07:18.597Z,1.85
2022-08-12T07:10:04.724Z,1.92
2022-08-12T07:12:32.702Z,1.75
2022-08-12T07:15:01.981Z,3.15
2022-08-12T07:17:37.851Z,1.95
2022-08-12T07:20:29.838Z,2.17
2022-08-12T07:22:58.162Z,1.60
2022-08-12T07:25:41.559Z,1.80
2022-08-12T07:28:29.472Z,1.88
2022-08-12T07:30:58.053Z,1.83
2022-08-12T07:33:28.254Z,1.10
2022-08-12T07:35:57.532Z,1.70
2022-08-12T07:38:33.705Z,1.40
2022-08-12T07:41:04.020Z,1.40
2022-08-12T07:43:31.701Z,1.40
2022-08-12T07:46:00.324Z,1.10
2022-08-12T07:48:27.914Z,1.40
2022-08-12T07:50:55.163Z,4.32
2022-08-12T07:53:22.410Z,1.20
2022-08-12T07:55:49.571Z,1.30
2022-08-12T07:58:16.524Z,1.15
2022-08-12T08:00:44.593Z,1.83
2022-08-12T08:03:13.414Z,1.40
2022-08-12T08:05:46.504Z,0.60
2022-08-12T08:08:18.582Z,0.70
2022-08-12T08:10:46.373Z,0.80
2022-08-12T08:13:13.662Z,0.82
2022-08-12T08:18:28.943Z,0.80
2022-08-12T08:20:56.812Z,5.88
2022-08-12T08:23:46.395Z,0.77
2022-08-12T08:26:15.737Z,0.77
2022-08-12T08:28:44.172Z,0.70
2022-08-12T08:31:13.436Z,0.90
2022-08-12T08:34:05.250Z,0.80
2022-08-12T08:36:28.967Z,1.13
2022-08-12T08:38:58.686Z,0.90
2022-08-12T08:42:19.187Z,1.10
2022-08-12T08:44:36.427Z,0.80
2022-08-12T08:47:05.670Z,0.77
2022-08-12T08:49:33.011Z,1.17
2022-08-12T08:54:33.627Z,0.93
2022-08-12T08:57:01.953Z,0.80
2022-08-12T08:59:29.061Z,0.90
2022-08-12T09:01:56.720Z,1.15
2022-08-12T09:05:13.272Z,1.05
2022-08-12T09:07:17.852Z,0.90
2022-08-12T09:10:02.047Z,0.90
2022-08-12T09:15:41.692Z,0.90
2022-08-12T09:18:11.781Z,0.68
2022-08-12T09:20:40.523Z,0.90
2022-08-12T09:26:04.333Z,0.70
2022-08-12T09:28:37.327Z,1.17
2022-08-12T09:32:02.652Z,0.70
2022-08-12T09:34:27.874Z,0.95
2022-08-12T09:36:57.722Z,0.60
2022-08-12T09:40:05.720Z,0.75
2022-08-12T09:42:43.409Z,0.70
2022-08-12T09:46:11.466Z,0.45
2022-08-12T09:48:20.072Z,0.50
2022-08-12T09:50:51.650Z,0.60
2022-08-12T09:53:29.260Z,0.68
2022-08-12T09:56:07.168Z,0.60
2022-08-12T09:58:59.997Z,0.70
2022-08-12T10:01:35.392Z,0.57
2022-08-12T10:04:19.097Z,0.52
2022-08-12T10:06:54.326Z,0.80
2022-08-12T10:09:28.435Z,1.02
2022-08-12T10:12:31.547Z,0.60
2022-08-12T10:15:02.143Z,0.65
2022-08-12T10:17:29.647Z,0.80
2022-08-12T10:19:59.731Z,0.90
2022-08-12T10:22:36.447Z,1.30
2022-08-12T10:26:18.969Z,1.70
2022-08-12T10:28:33.283Z,1.10
2022-08-12T10:31:01.165Z,1.65
2022-08-12T10:33:31.982Z,1.52
2022-08-12T10:36:02.018Z,1.20
2022-08-12T10:38:37.559Z,1.13
2022-08-12T10:41:57.279Z,1.40
2022-08-12T10:44:16.887Z,1.20
2022-08-12T10:46:49.861Z,1.55
2022-08-12T10:50:03.693Z,1.13
2022-08-12T10:52:34.939Z,1.10
2022-08-12T10:54:56.250Z,1.10
2022-08-12T10:58:12.731Z,1.00
2022-08-12T11:00:34.859Z,1.20
2022-08-12T11:04:26.257Z,1.20
2022-08-12T11:07:10.116Z,0.82
2022-08-12T11:08:43.517Z,0.90
2022-08-12T11:12:07.502Z,2.65
2022-08-12T11:14:05.891Z,0.90
2022-08-12T11:16:33.406Z,1.13
2022-08-12T11:19:02.936Z,0.80
2022-08-12T11:21:56.308Z,5.28
2022-08-12T11:24:31.873Z,0.90
2022-08-12T11:27:01.352Z,8.77
2022-08-12T11:30:05.477Z,0.93
2022-08-12T11:32:16.952Z,0.70
2022-08-12T11:34:51.716Z,1.00
2022-08-12T11:37:26.480Z,0.80
2022-08-12T11:42:39.640Z,0.80
2022-08-12T11:45:16.894Z,0.73
2022-08-12T11:47:44.492Z,0.82
2022-08-12T11:50:19.248Z,0.63
2022-08-12T11:52:56.392Z,0.57
2022-08-12T11:55:25.402Z,0.82
2022-08-12T11:59:02.764Z,0.88
2022-08-12T12:03:44.154Z,0.60
2022-08-12T12:06:18.017Z,0.68
2022-08-12T12:08:51.063Z,0.68
2022-08-12T12:11:20.245Z,0.75
2022-08-12T12:14:06.604Z,0.90
2022-08-12T12:16:38.012Z,0.60
2022-08-12T12:19:05.718Z,0.67
2022-08-12T12:21:47.845Z,0.68
2022-08-12T12:24:21.805Z,0.50
2022-08-12T12:27:00.893Z,0.55
2022-08-12T12:30:13.750Z,1.00
2022-08-12T12:32:17.294Z,0.70
2022-08-12T12:35:14.474Z,0.50
2022-08-12T12:37:59.037Z,0.57
2022-08-12T12:40:21.570Z,0.63
2022-08-12T12:42:55.334Z,0.70
2022-08-12T12:45:26.316Z,0.98
2022-08-12T12:48:07.965Z,0.80
2022-08-12T12:51:48.907Z,0.70
2022-08-12T12:56:40.623Z,0.68
2022-08-12T12:59:55.434Z,0.60
2022-08-12T13:01:55.548Z,0.55
2022-08-12T13:04:22.790Z,0.70
2022-08-12T13:06:52.280Z,0.60
2022-08-12T13:09:22.310Z,1.60
2022-08-12T13:11:53.486Z,0.57
2022-08-12T13:14:27.969Z,0.68
2022-08-12T13:17:02.701Z,0.82
2022-08-12T13:19:42.264Z,0.50
2022-08-12T13:22:23.624Z,0.50
2022-08-12T13:24:56.220Z,0.57
2022-08-12T13:27:34.548Z,0.63
2022-08-12T13:30:06.750Z,0.55
2022-08-12T13:32:37.995Z,0.60
2022-08-12T13:35:19.745Z,3.80
2022-08-12T13:37:55.851Z,0.60
2022-08-12T13:40:33.462Z,0.47
2022-08-12T13:43:02.121Z,0.63
2022-08-12T13:45:31.231Z,0.60
2022-08-12T13:48:05.540Z,0.57
2022-08-12T13:50:37.553Z,0.60
2022-08-12T13:53:24.322Z,0.50
2022-08-12T13:55:59.382Z,0.60
2022-08-12T13:58:28.348Z,0.60
2022-08-12T14:00:58.390Z,0.68
2022-08-12T14:03:28.449Z,0.43
2022-08-12T14:06:15.199Z,0.57
2022-08-12T14:08:43.718Z,0.50
2022-08-12T14:11:12.352Z,0.50
2022-08-12T14:14:05.176Z,0.50
2022-08-12T14:16:46.606Z,0.60
2022-08-12T14:19:22.862Z,1.55
2022-08-12T14:22:01.506Z,0.60
2022-08-12T14:24:41.097Z,0.68
2022-08-12T14:27:10.601Z,0.60
2022-08-12T14:30:06.193Z,0.60
2022-08-12T14:32:35.508Z,0.70
2022-08-12T14:35:09.511Z,0.65
2022-08-12T14:37:56.604Z,0.70
2022-08-12T14:40:30.065Z,0.70
2022-08-12T14:43:00.217Z,0.55
2022-08-12T14:45:44.368Z,0.57
2022-08-12T14:48:19.430Z,0.55
2022-08-12T14:51:02.847Z,0.55
2022-08-12T14:59:56.864Z,0.60
2022-08-12T15:02:22.061Z,0.60
2022-08-12T15:04:58.856Z,0.50
2022-08-12T15:07:34.168Z,0.50
2022-08-12T15:10:32.015Z,0.70
2022-08-12T15:13:07.178Z,0.60
2022-08-12T15:15:38.606Z,0.43
2022-08-12T15:18:21.660Z,0.75
2022-08-12T15:20:54.726Z,0.65
2022-08-12T15:23:23.120Z,0.95
2022-08-12T15:25:59.837Z,0.60
2022-08-12T15:28:34.809Z,0.50
2022-08-12T15:31:03.389Z,0.65
2022-08-12T15:33:52.735Z,0.60
2022-08-12T15:36:50.244Z,0.60
2022-08-12T15:39:16.720Z,0.70
2022-08-12T15:41:49.332Z,0.70
2022-08-12T15:44:42.060Z,0.60
2022-08-12T15:47:05.268Z,0.60
2022-08-12T15:49:54.357Z,0.60
2022-08-12T15:52:27.550Z,0.70
2022-08-12T15:54:58.671Z,0.80
2022-08-12T15:57:27.383Z,0.63
2022-08-12T16:00:06.647Z,0.68
2022-08-12T16:02:50.165Z,0.50
2022-08-12T16:06:16.943Z,0.85
2022-08-12T16:08:15.212Z,1.10
2022-08-12T16:10:44.842Z,0.65
2022-08-12T16:13:14.683Z,0.77
2022-08-12T16:15:51.065Z,0.73
2022-08-12T16:18:37.264Z,0.50
2022-08-12T16:21:09.086Z,0.70
2022-08-12T16:23:55.321Z,1.00
2022-08-12T16:26:27.386Z,1.00
2022-08-12T16:29:15.155Z,0.57
2022-08-12T16:31:44.549Z,0.90
2022-08-12T16:34:25.446Z,0.85
2022-08-12T16:37:13.239Z,0.80
2022-08-12T16:39:59.792Z,0.80
2022-08-12T16:42:28.856Z,0.80
2022-08-12T16:45:01.879Z,0.73
2022-08-12T16:47:57.503Z,1.20
2022-08-12T16:50:22.806Z,0.73
2022-08-12T16:52:59.787Z,0.95
2022-08-12T16:55:42.283Z,1.20
2022-08-12T16:58:28.327Z,0.80
2022-08-12T17:00:58.810Z,0.80
2022-08-12T17:05:57.697Z,0.63
2022-08-12T17:08:29.001Z,0.73
2022-08-12T17:10:56.602Z,0.70
2022-08-12T17:13:26.373Z,0.80
2022-08-12T17:16:04.934Z,0.93
2022-08-12T17:18:43.944Z,0.88
2022-08-12T17:21:40.124Z,0.80
2022-08-12T17:24:10.565Z,1.05
2022-08-12T17:26:45.028Z,0.80
2022-08-12T17:29:31.952Z,1.30
2022-08-12T17:34:55.048Z,1.20
2022-08-12T17:37:22.295Z,1.00
2022-08-12T17:40:12.003Z,1.10
2022-08-12T17:42:42.301Z,1.13
2022-08-12T17:45:18.217Z,1.20
2022-08-12T17:48:00.773Z,1.15
2022-08-12T17:50:32.433Z,1.05
2022-08-12T17:53:02.871Z,9.07
2022-08-12T17:55:43.663Z,1.55
2022-08-12T17:58:21.619Z,1.58
2022-08-12T18:01:03.402Z,1.70
2022-08-12T18:04:04.231Z,1.48
2022-08-12T18:06:17.987Z,1.30
2022-08-12T18:08:54.436Z,1.23
2022-08-12T18:12:06.270Z,1.33
2022-08-12T18:14:29.994Z,1.30
2022-08-12T18:17:00.642Z,1.40
2022-08-12T18:19:34.266Z,1.13
2022-08-12T18:22:22.176Z,0.90
2022-08-12T18:25:04.945Z,5.37
2022-08-12T18:27:44.762Z,1.08
2022-08-12T18:33:03.461Z,1.10
2022-08-12T18:35:46.947Z,1.00
2022-08-12T18:38:21.900Z,1.20
2022-08-12T18:41:25.720Z,8.00
2022-08-12T18:44:09.700Z,1.33
2022-08-12T18:46:54.328Z,1.40
2022-08-12T18:49:37.956Z,1.30
2022-08-12T18:52:07.948Z,1.02
2022-08-12T18:54:41.262Z,1.40
2022-08-12T18:57:20.009Z,1.13
2022-08-12T19:00:06.515Z,1.13
2022-08-12T19:02:39.950Z,1.50
2022-08-12T19:05:12.306Z,1.02
2022-08-12T19:07:49.470Z,1.60
2022-08-12T19:10:23.009Z,1.50
2022-08-12T19:13:10.596Z,1.75
2022-08-12T19:15:43.173Z,1.98
2022-08-12T19:18:13.322Z,2.10
2022-08-12T19:20:41.851Z,2.10
2022-08-12T19:23:16.801Z,1.90
2022-08-12T19:26:00.715Z,1.80
2022-08-12T19:28:35.173Z,1.95
2022-08-12T19:31:56.502Z,1.50
2022-08-12T19:37:26.863Z,2.17
2022-08-12T19:40:10.317Z,1.85
2022-08-12T19:42:57.735Z,1.60
2022-08-12T19:45:41.936Z,1.70
2022-08-12T19:50:50.140Z,1.73
2022-08-12T19:53:22.898Z,1.75
2022-08-12T19:55:55.149Z,2.03
2022-08-12T19:58:23.428Z,1.90
2022-08-12T20:00:54.381Z,1.90
2022-08-12T20:03:39.281Z,1.77
2022-08-12T20:06:21.539Z,1.88
2022-08-12T20:08:55.886Z,2.10
2022-08-12T20:12:11.677Z,1.50
2022-08-12T20:14:19.507Z,1.63
2022-08-12T20:16:54.403Z,2.20
2022-08-12T20:19:52.770Z,3.20
2022-08-12T20:22:33.313Z,2.25
2022-08-12T20:25:07.229Z,1.80
2022-08-12T20:28:04.853Z,1.80
2022-08-12T20:30:52.903Z,1.63
2022-08-12T20:33:17.595Z,1.58
2022-08-12T20:36:13.006Z,1.83
2022-08-12T20:38:38.192Z,1.90
2022-08-12T20:41:17.575Z,1.73
2022-08-12T20:43:51.762Z,1.90
2022-08-12T20:46:19.991Z,1.95
2022-08-12T20:48:55.235Z,2.58
2022-08-12T20:51:27.596Z,3.00
2022-08-12T20:53:58.770Z,3.00
2022-08-12T20:56:34.341Z,2.92
2022-08-12T20:59:07.227Z,2.40
2022-08-12T21:01:47.022Z,2.20
2022-08-12T21:04:35.824Z,2.08
2022-08-12T21:07:09.125Z,1.90
2022-08-12T21:09:42.504Z,2.50
2022-08-12T21:12:31.340Z,2.10
2022-08-12T21:15:17.542Z,2.33
2022-08-12T21:18:11.280Z,2.42
2022-08-12T21:20:50.300Z,2.35
2022-08-12T21:23:21.653Z,2.28
2022-08-12T21:28:22.433Z,2.30
2022-08-12T21:32:34.395Z,2.00
2022-08-12T21:33:58.803Z,2.22
2022-08-12T21:36:34.869Z,1.77
2022-08-12T21:39:18.357Z,1.95
2022-08-12T21:41:50.886Z,2.22
2022-08-12T21:44:24.288Z,2.05
2022-08-12T21:47:21.652Z,2.00
2022-08-12T21:50:02.373Z,2.20
2022-08-12T21:52:35.689Z,2.45
2022-08-12T21:55:08.385Z,3.08
2022-08-12T21:57:50.868Z,2.70
2022-08-12T22:00:31.956Z,2.33
2022-08-12T22:04:02.161Z,2.42
2022-08-12T22:06:31.553Z,2.33
2022-08-12T22:09:16.437Z,3.20
2022-08-12T22:11:56.662Z,3.00
2022-08-12T22:14:30.198Z,3.22
2022-08-12T22:16:58.692Z,3.13
2022-08-12T22:19:27.857Z,3.40
2022-08-12T22:21:58.784Z,3.60
2022-08-12T22:24:30.544Z,3.72
2022-08-12T22:27:18.083Z,4.18
2022-08-12T22:30:08.453Z,4.10
2022-08-12T22:32:44.824Z,3.65
2022-08-12T22:35:47.282Z,3.47
2022-08-12T22:38:20.038Z,3.00
2022-08-12T22:40:52.404Z,3.30
2022-08-12T22:44:00.551Z,3.15
2022-08-12T22:46:52.097Z,3.40
2022-08-12T22:49:49.067Z,4.35
2022-08-12T22:52:14.247Z,4.15
2022-08-12T22:55:00.276Z,4.53
2022-08-12T22:57:53.317Z,4.05
2022-08-12T23:00:23.980Z,3.28
2022-08-12T23:02:52.077Z,3.42
2022-08-12T23:05:36.693Z,3.50
2022-08-12T23:08:13.892Z,3.55
2022-08-12T23:10:46.420Z,3.78
2022-08-12T23:13:42.267Z,3.67
2022-08-12T23:16:10.007Z,3.75
2022-08-12T23:18:48.113Z,3.42
2022-08-12T23:21:18.639Z,3.35
2022-08-12T23:24:09.375Z,3.00
2022-08-12T23:26:56.319Z,2.80
2022-08-12T23:29:29.803Z,3.00
2022-08-12T23:32:10.961Z,3.28
2022-08-12T23:34:37.913Z,3.50
2022-08-12T23:37:06.480Z,2.97
2022-08-12T23:40:13.500Z,3.10
2022-08-12T23:42:22.045Z,3.05
2022-08-12T23:45:03.469Z,3.45
2022-08-12T23:47:38.178Z,3.50
2022-08-12T23:50:16.149Z,3.40
2022-08-12T23:52:46.549Z,3.10
2022-08-12T23:55:25.098Z,3.88
